Time;durP1;ratioP1;P1;durP2;ratioP2;P2;SDS_P1;SDS_P2;PMS_P1;PMS_P2;Temp;Humidity;BMP_temperature;BMP_pressure;BME280_temperature;BME280_humidity;BME280_pressure;Samples;Min_cycle;Max_cycle;Signal;HPM_P1;HPM_P2
2022/03/05 00:01:40;;;;;;;8.95;7.45;;;19.60;77.70;;;;;;4230470;28;20790;-75
2022/03/05 00:03:43;;;;;;;10.18;7.10;;;19.60;77.70;;;;;;4230665;28;20562;-75
2022/03/05 00:05:45;;;;;;;7.35;6.65;;;19.60;77.70;;;;;;4230453;28;20884;-75
2022/03/05 00:07:49;;;;;;;8.25;7.07;;;19.60;77.80;;;;;;4230666;28;20662;-74
2022/03/05 00:09:52;;;;;;;10.52;6.85;;;19.60;77.70;;;;;;4230455;28;20222;-74
2022/03/05 00:11:54;;;;;;;8.85;7.38;;;19.50;77.50;;;;;;4230261;28;20275;-75
2022/03/05 00:13:56;;;;;;;9.07;7.38;;;19.50;77.50;;;;;;4230357;28;20221;-74
2022/03/05 00:15:59;;;;;;;9.32;7.30;;;19.50;77.50;;;;;;4228301;28;20226;-74
2022/03/05 00:18:01;;;;;;;7.95;6.68;;;19.50;77.30;;;;;;4230250;28;20615;-74
2022/03/05 00:20:05;;;;;;;9.30;7.18;;;19.50;77.40;;;;;;4230411;28;20306;-75
2022/03/05 00:22:07;;;;;;;11.80;8.27;;;19.50;77.30;;;;;;4230358;28;20213;-75
2022/03/05 00:24:11;;;;;;;10.45;7.35;;;19.50;77.30;;;;;;4230130;28;20241;-75
2022/03/05 00:26:13;;;;;;;8.95;6.90;;;19.50;77.50;;;;;;4230226;28;20217;-75
2022/03/05 00:28:16;;;;;;;8.93;7.90;;;19.50;77.60;;;;;;4230025;28;20627;-75
2022/03/05 00:30:18;;;;;;;10.85;7.75;;;19.50;77.50;;;;;;4230096;28;20661;-75
2022/03/05 00:32:21;;;;;;;8.98;7.30;;;19.50;77.30;;;;;;4229472;28;20974;-75
2022/03/05 00:34:23;;;;;;;7.43;6.70;;;19.40;77.40;;;;;;4230067;28;20226;-74
2022/03/05 00:36:25;;;;;;;8.82;7.38;;;19.40;77.30;;;;;;4229892;28;20217;-75
2022/03/05 00:38:28;;;;;;;10.02;7.75;;;19.50;77.10;;;;;;4221198;28;20214;-75
2022/03/05 00:40:31;;;;;;;8.20;7.07;;;19.40;77.00;;;;;;4230216;28;20577;-75
2022/03/05 00:42:34;;;;;;;10.07;8.02;;;19.40;77.00;;;;;;4230022;28;20225;-75
2022/03/05 00:44:36;;;;;;;7.90;7.10;;;19.40;76.90;;;;;;4229807;28;20623;-75
2022/03/05 00:46:40;;;;;;;8.57;7.43;;;19.40;76.90;;;;;;4229824;28;20723;-75
2022/03/05 00:48:42;;;;;;;8.90;7.25;;;19.40;77.00;;;;;;4229886;28;20263;-74
2022/03/05 00:50:45;;;;;;;9.13;7.22;;;19.40;77.10;;;;;;4229859;28;20222;-74
2022/03/05 00:52:47;;;;;;;9.77;7.90;;;19.40;77.00;;;;;;4225144;28;20218;-75
2022/03/05 00:54:51;;;;;;;9.38;8.05;;;19.30;76.80;;;;;;4220913;28;20217;-75
2022/03/05 00:56:55;;;;;;;10.25;7.43;;;19.40;76.60;;;;;;4225935;28;20214;-74
2022/03/05 00:58:57;;;;;;;9.00;8.00;;;19.30;76.60;;;;;;4229566;28;20982;-74
2022/03/05 01:01:00;;;;;;;10.32;8.18;;;19.30;76.70;;;;;;4221856;28;20300;-75
2022/03/05 01:03:02;;;;;;;8.70;7.63;;;19.30;76.50;;;;;;4221576;28;20262;-74
2022/03/05 01:05:05;;;;;;;8.35;7.53;;;19.30;76.50;;;;;;4227586;28;20608;-74
2022/03/05 01:07:07;;;;;;;10.40;7.38;;;19.30;76.50;;;;;;4215969;28;20670;-74
2022/03/05 01:09:10;;;;;;;9.85;8.45;;;19.30;76.60;;;;;;4229583;28;20221;-74
2022/03/05 01:11:15;;;;;;;9.73;7.38;;;19.30;76.60;;;;;;4229932;28;20283;-74
2022/03/05 01:13:19;;;;;;;10.35;7.35;;;19.30;76.60;;;;;;4230161;28;20952;-74
2022/03/05 01:15:22;;;;;;;9.10;6.97;;;19.30;76.40;;;;;;4228263;28;20531;-74
2022/03/05 01:17:24;;;;;;;9.30;7.78;;;19.30;76.60;;;;;;4229410;28;20274;-74
2022/03/05 01:19:27;;;;;;;8.90;7.22;;;19.30;76.40;;;;;;4229750;28;20266;-74
2022/03/05 01:21:29;;;;;;;10.35;7.68;;;19.30;76.40;;;;;;4229878;28;20221;-74
2022/03/05 01:23:31;;;;;;;8.13;7.32;;;19.30;76.40;;;;;;4229473;28;20217;-74
2022/03/05 01:25:34;;;;;;;10.05;7.70;;;19.30;76.50;;;;;;4229944;28;20218;-74
2022/03/05 01:27:36;;;;;;;9.75;7.70;;;19.30;76.60;;;;;;4229897;28;20214;-74
2022/03/05 01:29:40;;;;;;;9.48;7.78;;;19.30;76.40;;;;;;4229588;28;20221;-75
2022/03/05 01:31:42;;;;;;;8.07;7.28;;;19.20;76.30;;;;;;4229266;28;20214;-74
2022/03/05 01:33:45;;;;;;;9.48;7.90;;;19.20;76.30;;;;;;4229088;28;20217;-74
2022/03/05 01:35:48;;;;;;;8.95;7.75;;;19.20;76.30;;;;;;4229769;28;20620;-75
2022/03/05 01:37:50;;;;;;;9.60;7.40;;;19.20;76.30;;;;;;4229136;28;20218;-75
2022/03/05 01:39:53;;;;;;;8.85;7.70;;;19.20;76.20;;;;;;4229438;28;20282;-75
2022/03/05 01:41:56;;;;;;;8.43;7.63;;;19.20;76.10;;;;;;4229356;28;20295;-74
2022/03/05 01:43:58;;;;;;;9.18;7.30;;;19.20;76.30;;;;;;4228454;28;20621;-74
2022/03/05 01:46:02;;;;;;;9.45;7.47;;;19.20;76.20;;;;;;4218987;28;20263;-74
2022/03/05 01:48:05;;;;;;;9.35;7.82;;;19.20;76.10;;;;;;4232183;28;20252;-75
2022/03/05 01:50:09;;;;;;;10.50;7.95;;;19.10;75.90;;;;;;4232652;28;20658;-75
2022/03/05 01:52:11;;;;;;;9.05;8.15;;;19.20;76.20;;;;;;4232857;28;20214;-74
2022/03/05 01:54:14;;;;;;;9.18;7.78;;;19.10;75.90;;;;;;4232689;28;20255;-74
2022/03/05 01:56:17;;;;;;;8.90;7.70;;;19.10;75.80;;;;;;4217905;28;20662;-74
2022/03/05 01:58:20;;;;;;;9.40;8.27;;;19.10;75.90;;;;;;4227745;28;20222;-75
2022/03/05 02:00:22;;;;;;;9.68;8.15;;;19.10;75.90;;;;;;4226878;28;20213;-74
2022/03/05 02:02:26;;;;;;;9.30;8.30;;;19.10;75.80;;;;;;4225764;28;20605;-75
2022/03/05 02:04:28;;;;;;;9.10;8.13;;;19.10;75.80;;;;;;4214507;28;20206;-74
2022/03/05 02:06:31;;;;;;;9.98;8.85;;;19.10;75.80;;;;;;4215399;28;20698;-74
2022/03/05 02:08:33;;;;;;;9.32;7.97;;;19.10;75.80;;;;;;4217705;28;20213;-74
2022/03/05 02:10:36;;;;;;;9.82;8.23;;;19.10;75.70;;;;;;4223963;28;20218;-74
2022/03/05 02:12:39;;;;;;;10.38;8.50;;;19.10;75.70;;;;;;4220051;28;20213;-74
2022/03/05 02:14:41;;;;;;;9.98;7.63;;;19.10;75.70;;;;;;4223463;28;20259;-74
2022/03/05 02:16:44;;;;;;;8.27;7.47;;;19.10;75.50;;;;;;4219443;28;20230;-74
2022/03/05 02:18:48;;;;;;;9.88;8.68;;;19.10;75.80;;;;;;4223218;28;20629;-75
2022/03/05 02:20:52;;;;;;;11.07;8.65;;;19.00;75.30;;;;;;4232302;28;20214;-74
2022/03/05 02:22:55;;;;;;;9.23;7.85;;;19.00;75.60;;;;;;4232621;28;20270;-74
2022/03/05 02:24:58;;;;;;;11.07;8.50;;;19.00;75.30;;;;;;4232044;28;20213;-74
2022/03/05 02:27:00;;;;;;;9.45;7.68;;;19.00;75.40;;;;;;4232348;28;20277;-74
2022/03/05 02:29:03;;;;;;;9.32;8.10;;;19.00;75.30;;;;;;4230183;28;20230;-74
2022/03/05 02:31:06;;;;;;;10.65;8.63;;;19.00;75.40;;;;;;4232200;28;20612;-74
2022/03/05 02:33:08;;;;;;;9.88;8.88;;;19.00;75.20;;;;;;4232026;28;20213;-75
2022/03/05 02:35:10;;;;;;;9.93;8.70;;;19.00;75.10;;;;;;4221552;28;20611;-74
2022/03/05 02:37:16;;;;;;;9.13;7.97;;;19.00;75.20;;;;;;4230226;28;20286;-74
2022/03/05 02:39:18;;;;;;;10.48;8.43;;;19.00;75.00;;;;;;4231771;28;20218;-74
2022/03/05 02:41:21;;;;;;;9.05;7.82;;;19.00;75.00;;;;;;4231888;28;20282;-74
2022/03/05 02:43:25;;;;;;;10.00;8.88;;;19.00;75.00;;;;;;4231600;28;20226;-74
2022/03/05 02:45:27;;;;;;;10.13;7.88;;;18.90;75.00;;;;;;4231606;28;20214;-74
2022/03/05 02:47:29;;;;;;;9.68;8.70;;;19.00;75.80;;;;;;4231697;28;20221;-74
2022/03/05 02:49:31;;;;;;;10.25;8.13;;;18.90;74.90;;;;;;4224061;28;20221;-74
2022/03/05 02:51:34;;;;;;;10.20;8.57;;;18.90;74.90;;;;;;4220060;28;20267;-74
2022/03/05 02:53:38;;;;;;;10.35;8.65;;;18.90;74.80;;;;;;4216832;28;20615;-74
2022/03/05 02:55:41;;;;;;;11.23;8.90;;;18.90;74.90;;;;;;4219427;28;20230;-74
2022/03/05 02:57:44;;;;;;;10.02;8.60;;;18.90;75.00;;;;;;4231303;28;20222;-74
2022/03/05 02:59:47;;;;;;;10.38;8.88;;;18.90;74.90;;;;;;4231342;28;20247;-74
2022/03/05 03:01:49;;;;;;;10.52;8.50;;;18.90;74.80;;;;;;4231580;28;20245;-74
2022/03/05 03:03:51;;;;;;;10.80;8.63;;;18.90;74.90;;;;;;4231693;28;20218;-74
2022/03/05 03:05:54;;;;;;;9.60;8.48;;;18.90;74.80;;;;;;4231179;28;20217;-74
2022/03/05 03:07:56;;;;;;;9.73;8.73;;;18.90;74.90;;;;;;4231382;28;20260;-74
2022/03/05 03:10:00;;;;;;;9.90;8.10;;;18.90;74.80;;;;;;4231183;28;20217;-74
2022/03/05 03:12:02;;;;;;;10.93;8.85;;;18.90;74.90;;;;;;4230927;28;20726;-74
2022/03/05 03:14:05;;;;;;;9.20;7.78;;;18.90;74.80;;;;;;4231268;28;20271;-74
2022/03/05 03:16:08;;;;;;;9.57;8.45;;;18.90;74.90;;;;;;4225597;28;20290;-74
2022/03/05 03:18:10;;;;;;;11.98;9.05;;;18.80;74.60;;;;;;4231663;28;20236;-74
2022/03/05 03:20:14;;;;;;;12.02;8.50;;;18.80;74.70;;;;;;4231042;28;20218;-74
2022/03/05 03:22:17;;;;;;;11.63;9.00;;;18.80;74.70;;;;;;4231114;28;20291;-74
2022/03/05 03:24:20;;;;;;;10.32;8.48;;;18.80;74.70;;;;;;4220563;28;20279;-74
2022/03/05 03:26:23;;;;;;;11.45;9.05;;;18.80;74.60;;;;;;4231025;28;20621;-75
2022/03/05 03:28:26;;;;;;;10.93;9.40;;;18.80;74.50;;;;;;4231400;28;20221;-75
2022/03/05 03:30:28;;;;;;;9.48;8.30;;;18.80;74.60;;;;;;4231006;28;20218;-75
2022/03/05 03:32:30;;;;;;;11.40;8.98;;;18.80;74.50;;;;;;4230781;28;20622;-75
2022/03/05 03:34:34;;;;;;;9.73;8.73;;;18.80;75.40;;;;;;4218874;28;20214;-74
2022/03/05 03:36:36;;;;;;;9.10;8.15;;;18.80;74.50;;;;;;4225041;28;20657;-74
2022/03/05 03:38:40;;;;;;;10.10;8.88;;;18.80;74.50;;;;;;4230728;28;20217;-74
2022/03/05 03:40:42;;;;;;;11.50;9.30;;;18.80;74.50;;;;;;4231052;28;20266;-74
2022/03/05 03:42:48;;;;;;;10.80;9.05;;;18.80;74.30;;;;;;4231174;28;21018;-74
2022/03/05 03:44:50;;;;;;;9.57;8.57;;;18.80;74.30;;;;;;4230959;28;20634;-75
2022/03/05 03:46:53;;;;;;;10.40;8.95;;;18.80;74.50;;;;;;4230811;28;20222;-74
2022/03/05 03:48:56;;;;;;;11.60;8.68;;;18.70;74.30;;;;;;4230766;28;20267;-75
2022/03/05 03:50:58;;;;;;;10.15;9.05;;;18.70;74.30;;;;;;4230724;28;20267;-75
2022/03/05 03:53:01;;;;;;;10.07;8.60;;;18.70;74.10;;;;;;4230543;28;20254;-74
2022/03/05 03:55:06;;;;;;;10.32;9.07;;;18.70;74.30;;;;;;4230456;28;20218;-74
2022/03/05 03:57:09;;;;;;;10.80;9.52;;;18.70;74.00;;;;;;4230425;28;20309;-74
2022/03/05 03:59:12;;;;;;;12.15;9.27;;;18.70;73.90;;;;;;4230800;28;20271;-74
2022/03/05 04:01:15;;;;;;;10.02;8.73;;;18.70;73.90;;;;;;4230866;28;20217;-74
2022/03/05 04:03:17;;;;;;;9.85;8.85;;;18.60;74.00;;;;;;4230354;28;20237;-74
2022/03/05 04:05:20;;;;;;;9.98;8.70;;;18.70;74.20;;;;;;4230484;28;20221;-74
2022/03/05 04:09:42;;;;;;;10.43;8.80;;;18.70;73.90;;;;;;4219813;28;20224;-74
2022/03/05 04:11:44;;;;;;;11.90;8.93;;;18.60;73.80;;;;;;4230720;28;20217;-74
2022/03/05 04:13:47;;;;;;;11.15;8.80;;;18.70;73.90;;;;;;4230322;28;20213;-75
2022/03/05 04:15:50;;;;;;;9.95;8.85;;;18.60;73.80;;;;;;4225426;28;20628;-74
2022/03/05 04:17:53;;;;;;;10.48;8.73;;;18.60;73.80;;;;;;4230418;28;20218;-74
2022/03/05 04:19:55;;;;;;;9.30;8.40;;;18.60;73.80;;;;;;4230329;28;20217;-74
2022/03/05 04:21:58;;;;;;;10.60;9.20;;;18.60;73.80;;;;;;4225785;28;20225;-74
2022/03/05 04:24:00;;;;;;;11.00;9.40;;;18.50;73.70;;;;;;4227027;28;20280;-74
2022/03/05 04:26:03;;;;;;;10.40;9.30;;;18.60;73.70;;;;;;4219311;28;20260;-75
2022/03/05 04:28:05;;;;;;;10.75;9.50;;;18.60;73.80;;;;;;4230252;28;20222;-74
2022/03/05 04:30:09;;;;;;;11.20;9.00;;;18.50;73.70;;;;;;4229708;28;20614;-75
2022/03/05 04:32:13;;;;;;;12.55;9.45;;;18.60;73.70;;;;;;4229865;28;20259;-74
2022/03/05 04:34:16;;;;;;;10.77;9.10;;;18.60;73.70;;;;;;4229965;28;20262;-74
2022/03/05 04:36:18;;;;;;;10.77;9.35;;;18.50;73.70;;;;;;4229753;28;21067;-75
2022/03/05 04:38:20;;;;;;;11.65;9.52;;;18.50;73.60;;;;;;4230228;28;20221;-75
2022/03/05 04:40:23;;;;;;;10.73;9.02;;;18.50;73.70;;;;;;4229749;28;20214;-74
2022/03/05 04:42:25;;;;;;;10.70;9.23;;;18.50;73.70;;;;;;4230198;28;20814;-74
2022/03/05 04:44:28;;;;;;;9.80;8.48;;;18.50;73.60;;;;;;4230458;28;20725;-74
2022/03/05 04:46:30;;;;;;;10.88;9.73;;;18.50;73.70;;;;;;4229905;28;20225;-74
2022/03/05 04:48:34;;;;;;;10.70;9.60;;;18.50;73.60;;;;;;4216728;28;20704;-74
2022/03/05 04:50:36;;;;;;;10.73;9.63;;;18.50;73.60;;;;;;4230480;28;20278;-74
2022/03/05 04:52:39;;;;;;;10.25;8.68;;;18.50;73.70;;;;;;4229874;28;20274;-74
2022/03/05 04:54:42;;;;;;;10.05;8.85;;;18.50;73.70;;;;;;4229686;28;20222;-75
2022/03/05 04:56:44;;;;;;;10.23;9.13;;;18.50;73.70;;;;;;4230022;28;20217;-75
2022/03/05 04:58:47;;;;;;;9.90;8.77;;;18.50;73.70;;;;;;4229928;28;20262;-74
2022/03/05 05:00:49;;;;;;;11.50;8.75;;;18.50;73.60;;;;;;4229886;28;20225;-75
2022/03/05 05:02:51;;;;;;;10.38;9.27;;;18.50;73.70;;;;;;4229929;28;20283;-75
2022/03/05 05:04:55;;;;;;;10.70;8.82;;;18.40;73.50;;;;;;4229710;28;20677;-74
2022/03/05 05:06:57;;;;;;;10.15;9.02;;;18.40;73.50;;;;;;4224250;28;20264;-74
2022/03/05 05:09:00;;;;;;;10.60;9.50;;;18.40;73.50;;;;;;4227644;28;20627;-74
2022/03/05 05:11:03;;;;;;;9.80;8.80;;;18.40;74.30;;;;;;4229831;28;20222;-74
2022/03/05 05:13:05;;;;;;;11.18;9.45;;;18.40;74.30;;;;;;4229278;28;20218;-74
2022/03/05 05:15:09;;;;;;;10.25;8.95;;;18.40;73.50;;;;;;4230082;28;20607;-74
2022/03/05 05:17:11;;;;;;;10.45;9.25;;;18.40;73.60;;;;;;4228621;28;20290;-74
2022/03/05 05:19:25;;;;;;;12.65;9.00;;;18.40;73.50;;;;;;4229212;28;20221;-74
2022/03/05 05:21:29;;;;;;;12.32;8.93;;;18.40;73.40;;;;;;4229821;28;20233;-74
2022/03/05 05:23:31;;;;;;;12.23;9.43;;;18.40;73.60;;;;;;4226227;28;20276;-74
2022/03/05 05:25:34;;;;;;;10.38;9.27;;;18.40;73.50;;;;;;4229404;28;20286;-74
2022/03/05 05:27:37;;;;;;;10.02;9.07;;;18.40;73.50;;;;;;4229827;28;20236;-74
2022/03/05 05:29:39;;;;;;;10.70;9.43;;;18.30;73.40;;;;;;4229411;28;20217;-74
2022/03/05 05:31:41;;;;;;;12.25;8.82;;;18.30;73.40;;;;;;4229694;28;20201;-74
2022/03/05 05:33:45;;;;;;;10.85;8.98;;;18.30;73.40;;;;;;4226318;28;20647;-74
2022/03/05 05:35:47;;;;;;;11.63;9.02;;;18.40;73.50;;;;;;4229542;28;20221;-74
2022/03/05 05:37:51;;;;;;;12.10;9.88;;;18.30;73.40;;;;;;4229733;28;20755;-74
2022/03/05 05:39:53;;;;;;;12.48;8.65;;;18.30;73.40;;;;;;4229182;28;20213;-74
2022/03/05 05:41:56;;;;;;;9.80;8.68;;;18.30;73.20;;;;;;4229346;28;20213;-74
2022/03/05 05:43:58;;;;;;;11.00;9.90;;;18.30;73.20;;;;;;4229057;28;20279;-74
2022/03/05 05:46:01;;;;;;;10.80;8.82;;;18.30;73.40;;;;;;4229318;28;20243;-75
2022/03/05 05:48:03;;;;;;;9.70;8.70;;;18.30;73.30;;;;;;4229667;28;20270;-75
2022/03/05 05:50:06;;;;;;;12.20;9.23;;;18.30;73.20;;;;;;4229684;28;20222;-75
2022/03/05 05:52:09;;;;;;;11.25;10.00;;;18.30;73.30;;;;;;4229168;28;20217;-75
2022/03/05 05:54:12;;;;;;;10.25;9.13;;;18.30;73.40;;;;;;4215209;28;20292;-75
2022/03/05 05:56:15;;;;;;;11.00;9.30;;;18.30;73.20;;;;;;4217747;28;20263;-74
2022/03/05 05:58:17;;;;;;;11.30;9.18;;;18.30;73.40;;;;;;4228990;28;20225;-75
2022/03/05 06:00:20;;;;;;;9.93;8.95;;;18.30;73.30;;;;;;4229438;28;20725;-75
2022/03/05 06:02:23;;;;;;;10.45;9.30;;;18.30;73.10;;;;;;4229338;28;20218;-75
2022/03/05 06:04:26;;;;;;;9.95;8.95;;;18.30;73.20;;;;;;4228932;28;20250;-75
2022/03/05 06:06:28;;;;;;;10.70;9.60;;;18.30;73.20;;;;;;4229237;28;20225;-74
2022/03/05 06:08:30;;;;;;;10.63;9.10;;;18.20;72.90;;;;;;4229086;28;20263;-75
2022/03/05 06:10:34;;;;;;;10.57;9.48;;;18.20;72.90;;;;;;4229053;28;20217;-75
2022/03/05 06:12:37;;;;;;;10.15;8.20;;;18.20;73.20;;;;;;4220581;28;20740;-75
2022/03/05 06:14:39;;;;;;;12.27;9.05;;;18.20;73.00;;;;;;4222118;28;20877;-75
2022/03/05 06:16:42;;;;;;;11.15;9.20;;;18.20;72.90;;;;;;4216071;28;20238;-75
2022/03/05 06:18:44;;;;;;;10.40;9.05;;;18.20;73.30;;;;;;4228990;28;20270;-75
2022/03/05 06:20:47;;;;;;;11.90;9.32;;;18.20;73.00;;;;;;4228800;28;20221;-75
2022/03/05 06:22:49;;;;;;;12.18;9.25;;;18.20;73.20;;;;;;4228700;28;20214;-75
2022/03/05 06:24:51;;;;;;;9.82;8.68;;;18.20;73.20;;;;;;4229248;28;20658;-75
2022/03/05 06:26:55;;;;;;;12.50;9.40;;;18.20;73.00;;;;;;4215729;28;20214;-75
2022/03/05 06:28:57;;;;;;;10.10;8.63;;;18.10;73.00;;;;;;4229415;28;20628;-75
2022/03/05 06:31:00;;;;;;;10.65;9.20;;;18.20;73.20;;;;;;4231193;28;20321;-75
2022/03/05 06:33:02;;;;;;;10.07;8.90;;;18.20;73.20;;;;;;4231750;28;20620;-75
2022/03/05 06:35:06;;;;;;;13.57;9.45;;;18.10;73.10;;;;;;4219224;28;20225;-75
2022/03/05 06:37:08;;;;;;;10.73;9.40;;;18.20;73.30;;;;;;4222399;28;20286;-75
2022/03/05 06:39:11;;;;;;;9.90;8.73;;;18.20;73.10;;;;;;4231933;28;20294;-75
2022/03/05 06:41:13;;;;;;;10.73;9.18;;;18.10;73.00;;;;;;4231982;28;20561;-75
2022/03/05 06:43:18;;;;;;;10.93;9.25;;;18.10;73.20;;;;;;4231958;28;20210;-75
2022/03/05 06:45:21;;;;;;;12.18;10.30;;;18.10;73.20;;;;;;4231670;28;20271;-75
2022/03/05 06:47:23;;;;;;;9.13;8.23;;;18.10;73.20;;;;;;4231789;28;20735;-75
2022/03/05 06:49:25;;;;;;;10.05;8.73;;;18.10;73.20;;;;;;4231417;28;20226;-75
2022/03/05 06:51:28;;;;;;;10.85;8.60;;;18.10;73.20;;;;;;4231948;28;20225;-75
2022/03/05 06:53:30;;;;;;;9.50;8.52;;;18.10;73.20;;;;;;4224466;28;21005;-75
2022/03/05 06:55:33;;;;;;;11.25;9.65;;;18.10;73.20;;;;;;4226116;28;20703;-75
2022/03/05 06:57:36;;;;;;;9.60;8.60;;;18.10;74.00;;;;;;4231401;28;20624;-75
2022/03/05 06:59:40;;;;;;;9.52;8.45;;;18.10;73.30;;;;;;4219856;28;20230;-75
2022/03/05 07:01:43;;;;;;;10.07;8.98;;;18.10;73.20;;;;;;4231227;28;20262;-75
2022/03/05 07:03:45;;;;;;;11.75;8.95;;;18.10;73.20;;;;;;4231484;28;20639;-75
2022/03/05 07:05:47;;;;;;;9.73;8.73;;;18.10;73.30;;;;;;4231358;28;20222;-75
2022/03/05 07:07:49;;;;;;;9.43;8.43;;;18.10;73.30;;;;;;4225491;28;20635;-75
2022/03/05 07:09:52;;;;;;;11.32;8.38;;;18.10;73.30;;;;;;4231600;28;20213;-75
2022/03/05 07:11:54;;;;;;;9.30;8.38;;;18.10;73.30;;;;;;4231345;28;20225;-75
2022/03/05 07:13:56;;;;;;;11.43;8.75;;;18.10;73.30;;;;;;4224430;28;20285;-75
2022/03/05 07:16:00;;;;;;;12.40;9.80;;;18.10;73.30;;;;;;4223830;28;20647;-74
2022/03/05 07:18:02;;;;;;;10.88;9.35;;;18.10;73.30;;;;;;4231310;28;20217;-75
2022/03/05 07:20:07;;;;;;;10.95;8.48;;;18.10;73.30;;;;;;4231260;28;20221;-75
2022/03/05 07:22:09;;;;;;;10.50;9.00;;;18.10;73.30;;;;;;4230918;28;20287;-75
2022/03/05 07:24:12;;;;;;;10.32;9.07;;;18.10;73.30;;;;;;4231223;28;20237;-75
2022/03/05 07:26:14;;;;;;;11.07;8.45;;;18.00;73.20;;;;;;4231097;28;20217;-75
2022/03/05 07:28:17;;;;;;;10.27;8.38;;;18.10;73.30;;;;;;4230882;28;20229;-75
2022/03/05 07:30:19;;;;;;;10.88;9.48;;;18.00;73.20;;;;;;4231079;28;20222;-75
2022/03/05 07:32:23;;;;;;;10.13;8.65;;;18.00;73.20;;;;;;4231113;28;20217;-75
2022/03/05 07:34:26;;;;;;;11.02;9.23;;;18.10;73.30;;;;;;4222446;28;20214;-75
2022/03/05 07:36:30;;;;;;;9.32;8.20;;;18.00;73.50;;;;;;4214126;28;20271;-75
2022/03/05 07:38:32;;;;;;;9.88;8.45;;;18.10;73.30;;;;;;4228418;28;20266;-75
2022/03/05 07:40:35;;;;;;;10.35;9.35;;;18.10;73.40;;;;;;4230771;28;20267;-75
2022/03/05 07:42:37;;;;;;;11.95;8.85;;;18.00;73.20;;;;;;4222878;28;20267;-75
2022/03/05 07:44:39;;;;;;;11.73;9.02;;;18.10;73.50;;;;;;4221645;28;20233;-75
2022/03/05 07:46:41;;;;;;;10.20;9.13;;;18.10;73.40;;;;;;4231235;28;21079;-75
2022/03/05 07:48:45;;;;;;;9.63;8.27;;;18.10;73.40;;;;;;4230710;28;20229;-75
2022/03/05 07:50:49;;;;;;;10.52;9.10;;;18.10;73.30;;;;;;4230763;28;20225;-75
2022/03/05 07:52:52;;;;;;;11.85;9.68;;;18.10;74.30;;;;;;4230558;28;20225;-75
2022/03/05 07:54:54;;;;;;;10.07;8.30;;;18.10;73.40;;;;;;4230531;28;20202;-75
2022/03/05 07:56:56;;;;;;;9.02;7.97;;;18.10;73.70;;;;;;4229301;28;20715;-75
2022/03/05 07:58:59;;;;;;;9.55;8.50;;;18.10;73.50;;;;;;4226950;28;20241;-75
2022/03/05 08:01:01;;;;;;;10.27;8.95;;;18.10;73.60;;;;;;4223702;28;20214;-75
2022/03/05 08:03:03;;;;;;;11.02;8.73;;;18.10;73.60;;;;;;4225477;28;20248;-75
2022/03/05 08:05:08;;;;;;;9.32;8.32;;;18.00;74.10;;;;;;4230227;28;20237;-75
2022/03/05 08:07:10;;;;;;;11.70;9.15;;;18.00;74.00;;;;;;4230635;28;20217;-74
2022/03/05 08:09:12;;;;;;;11.40;8.25;;;18.10;74.00;;;;;;4230516;28;20263;-75
2022/03/05 08:11:15;;;;;;;10.10;8.93;;;18.10;74.10;;;;;;4230637;28;20243;-75
2022/03/05 08:13:17;;;;;;;9.18;8.20;;;18.10;74.30;;;;;;4230250;28;20217;-75
2022/03/05 08:15:20;;;;;;;9.77;8.32;;;18.10;74.40;;;;;;4228806;28;20255;-75
2022/03/05 08:17:23;;;;;;;10.30;8.50;;;18.20;75.60;;;;;;4213997;28;20275;-75
2022/03/05 08:19:25;;;;;;;11.02;8.95;;;18.20;75.50;;;;;;4213674;28;20651;-74
2022/03/05 08:21:29;;;;;;;9.70;8.57;;;18.20;75.50;;;;;;4213555;28;20247;-74
2022/03/05 08:23:31;;;;;;;8.90;7.97;;;18.30;75.80;;;;;;4216259;28;20275;-74
2022/03/05 08:25:34;;;;;;;9.40;8.35;;;18.30;75.30;;;;;;4230604;28;20294;-71
2022/03/05 08:27:36;;;;;;;10.43;8.50;;;18.30;75.80;;;;;;4230495;28;20716;-72
2022/03/05 08:29:39;;;;;;;9.43;8.43;;;18.30;76.30;;;;;;4230082;28;20735;-72
2022/03/05 08:31:41;;;;;;;9.85;8.18;;;18.30;76.30;;;;;;4230635;28;20731;-72
2022/03/05 08:33:43;;;;;;;8.90;7.80;;;18.30;76.40;;;;;;4230123;28;20248;-72
2022/03/05 08:35:46;;;;;;;9.23;7.70;;;18.40;76.40;;;;;;4230120;28;20214;-71
2022/03/05 08:37:50;;;;;;;9.13;8.23;;;18.40;76.40;;;;;;4230349;28;20719;-72
2022/03/05 08:39:52;;;;;;;8.75;7.50;;;18.40;76.60;;;;;;4230103;28;20218;-72
2022/03/05 08:41:55;;;;;;;9.57;8.02;;;18.40;76.90;;;;;;4230151;28;20251;-72
2022/03/05 08:43:57;;;;;;;8.98;7.88;;;18.40;77.30;;;;;;4226823;28;20218;-71
2022/03/05 08:46:01;;;;;;;9.00;8.10;;;18.40;77.10;;;;;;4229495;28;20246;-71
2022/03/05 08:48:03;;;;;;;10.07;8.15;;;18.40;77.30;;;;;;4229719;28;20266;-71
2022/03/05 08:50:07;;;;;;;10.15;8.35;;;18.40;77.30;;;;;;4229796;28;20225;-72
2022/03/05 08:52:10;;;;;;;8.25;7.45;;;18.50;77.70;;;;;;4229822;28;20997;-72
2022/03/05 08:54:14;;;;;;;8.07;7.20;;;18.50;77.50;;;;;;4228848;28;20267;-72
2022/03/05 08:56:16;;;;;;;8.93;8.02;;;18.40;77.50;;;;;;4229709;28;20255;-72
2022/03/05 08:58:18;;;;;;;10.40;8.15;;;18.50;77.70;;;;;;4229668;28;20266;-72
2022/03/05 09:00:21;;;;;;;10.00;8.32;;;18.50;77.90;;;;;;4215658;28;20267;-71
2022/03/05 09:02:23;;;;;;;10.25;8.50;;;18.50;77.90;;;;;;4230008;28;20254;-72
2022/03/05 09:04:25;;;;;;;10.13;8.13;;;18.50;77.90;;;;;;4229338;28;20267;-71
2022/03/05 09:06:28;;;;;;;10.10;9.10;;;18.50;78.20;;;;;;4229948;28;20286;-72
2022/03/05 09:08:30;;;;;;;8.48;7.65;;;18.50;78.20;;;;;;4229974;28;20214;-72
2022/03/05 09:10:34;;;;;;;9.50;7.72;;;18.60;78.30;;;;;;4229822;28;20214;-73
2022/03/05 09:12:37;;;;;;;11.60;7.40;;;18.50;78.70;;;;;;4229939;28;20247;-72
2022/03/05 09:14:39;;;;;;;10.02;8.43;;;18.50;79.40;;;;;;4229739;28;20286;-72
2022/03/05 09:16:42;;;;;;;11.23;8.27;;;18.60;78.90;;;;;;4224874;28;20357;-72
2022/03/05 09:18:44;;;;;;;8.98;7.57;;;18.50;78.70;;;;;;4229560;28;20263;-72
2022/03/05 09:20:47;;;;;;;8.27;7.25;;;18.50;78.80;;;;;;4229448;28;20267;-72
2022/03/05 09:22:49;;;;;;;9.35;7.90;;;18.50;79.00;;;;;;4224703;28;20221;-72
2022/03/05 09:24:52;;;;;;;8.85;7.68;;;18.60;78.80;;;;;;4229239;28;20245;-71
2022/03/05 09:26:55;;;;;;;9.60;7.35;;;18.60;79.00;;;;;;4229503;28;20214;-72
2022/03/05 09:28:58;;;;;;;8.95;7.88;;;18.60;79.40;;;;;;4229316;28;20218;-72
2022/03/05 09:31:00;;;;;;;9.25;7.28;;;18.70;79.50;;;;;;4219623;28;20963;-71
2022/03/05 09:33:02;;;;;;;9.32;6.75;;;18.70;79.60;;;;;;4222069;28;20262;-72
2022/03/05 09:35:05;;;;;;;8.27;7.00;;;18.70;79.50;;;;;;4225365;28;20217;-71
2022/03/05 09:37:08;;;;;;;8.23;7.43;;;18.60;79.40;;;;;;4229486;28;20569;-71
2022/03/05 09:39:11;;;;;;;8.25;7.20;;;18.70;80.60;;;;;;4218292;28;20222;-72
2022/03/05 09:41:13;;;;;;;8.77;7.40;;;18.70;79.80;;;;;;4229455;28;20270;-71
2022/03/05 09:43:18;;;;;;;8.80;7.18;;;18.70;80.90;;;;;;4229638;28;20274;-72
2022/03/05 09:45:20;;;;;;;8.55;7.18;;;18.70;79.80;;;;;;4220377;28;20764;-72
2022/03/05 09:47:24;;;;;;;9.45;6.75;;;18.70;79.80;;;;;;4213116;28;20222;-72
2022/03/05 09:49:28;;;;;;;7.25;6.38;;;18.70;80.00;;;;;;4218787;28;20267;-72
2022/03/05 09:51:30;;;;;;;8.32;7.30;;;18.70;80.60;;;;;;4226714;28;20217;-71
2022/03/05 09:53:33;;;;;;;8.10;7.20;;;18.70;80.10;;;;;;4229142;28;20270;-72
2022/03/05 09:55:36;;;;;;;7.70;6.90;;;18.70;80.20;;;;;;4229244;28;20214;-71
2022/03/05 09:57:38;;;;;;;7.60;6.63;;;18.70;80.50;;;;;;4229201;28;20221;-71
2022/03/05 09:59:45;;;;;;;7.80;7.00;;;18.70;80.90;;;;;;4229050;28;20221;-72
2022/03/05 10:01:48;;;;;;;7.63;6.82;;;18.80;80.60;;;;;;4229833;28;20210;-72
2022/03/05 10:03:52;;;;;;;7.72;6.78;;;18.80;80.60;;;;;;4229132;28;20266;-71
2022/03/05 10:06:14;;;;;;;8.38;6.78;;;18.80;81.10;;;;;;4231674;28;20283;-72
2022/03/05 10:08:20;;;;;;;8.00;6.90;;;18.80;81.80;;;;;;4232056;28;20218;-71
2022/03/05 10:10:24;;;;;;;7.20;6.50;;;18.80;81.10;;;;;;4232203;28;20262;-72
2022/03/05 10:12:31;;;;;;;8.13;6.72;;;18.80;81.90;;;;;;4232658;28;20674;-71
2022/03/05 10:14:34;;;;;;;7.47;6.72;;;18.80;81.10;;;;;;4229519;28;20209;-72
2022/03/05 10:16:37;;;;;;;7.70;6.47;;;18.80;81.00;;;;;;4227747;28;20237;-72
2022/03/05 10:18:41;;;;;;;7.60;6.80;;;18.80;81.10;;;;;;4232528;28;20221;-71
2022/03/05 10:20:45;;;;;;;8.60;7.20;;;18.80;81.00;;;;;;4232523;28;20670;-72
2022/03/05 10:23:06;;;;;;;8.32;7.18;;;18.80;81.00;;;;;;4232776;28;21086;-72
2022/03/05 10:25:09;;;;;;;7.63;6.88;;;18.80;80.70;;;;;;4232114;28;20222;-71
2022/03/05 10:27:11;;;;;;;7.85;7.00;;;18.90;80.80;;;;;;4232086;28;20628;-72
2022/03/05 10:29:22;;;;;;;8.13;6.88;;;18.90;81.00;;;;;;4224999;28;20739;-71
2022/03/05 10:31:24;;;;;;;6.75;6.05;;;18.90;81.30;;;;;;4229446;28;20270;-71
2022/03/05 10:33:30;;;;;;;8.02;6.72;;;18.90;81.20;;;;;;4231962;28;20670;-72
2022/03/05 10:35:33;;;;;;;8.93;7.18;;;18.90;81.10;;;;;;4231958;28;20210;-72
2022/03/05 10:37:36;;;;;;;7.63;6.70;;;18.90;81.10;;;;;;4232354;28;20225;-73